Bridgeport, CT (06699)

7:54 PM EDT on July 29, 2016 (GMT -0400)
Brewer Stratford Marina | | Change Station

Elev 20 ft 41.18 °N, 73.13 °W | Updated 2 seconds ago

Overcast
Overcast
76.8 °F
Feels Like 78 °F
N
1.2
Wind Variable Wind from North
Gusts 0.0 mph

Today
High -- | Low -- °F
--% Chance of Precip.
Yesterday
High -- | Low -- °F
Precip. -- in
Pressure 29.89 in
Visibility 10.0 miles
Clouds Scattered Clouds 4900 ft
Mostly Cloudy 6000 ft
Overcast 7500 ft
Heat Index 78 °F
Dew Point 68 °F
Humidity 74%
Rainfall 0.28 in
Snow Depth Not available.
5:45 AM 8:11 PM
Waning Crescent, 18% visible
METAR KBDR 292352Z 31004KT 10SM -RA SCT049 BKN060 OVC075 26/19 A2989 RMK AO2 RAB45 SLP120 P0000 60000 T02610194 10272 20261 53020
Pressure 29.89 in
Visibility 10.0 miles
Clouds Scattered Clouds 4900 ft
Mostly Cloudy 6000 ft
Overcast 7500 ft
Heat Index 78 °F
Dew Point 68 °F
Humidity 74%
Rainfall 0.28 in
Snow Depth Not available.
5:45 AM 8:11 PM
Waning Crescent, 18% visible
METAR KBDR 292352Z 31004KT 10SM -RA SCT049 BKN060 OVC075 26/19 A2989 RMK AO2 RAB45 SLP120 P0000 60000 T02610194 10272 20261 53020

10-Day Weather Forecast

Almanac

Astronomy

Jul. 29, 2016 Rise Set
Actual Time
Civil Twilight
Nautical Twilight
Astronomical Twilight
Moon
Length of Visible Light
Length of Day
Tomorrow will be .
, % of the Moon is Illuminated

Today's Extremes

State Highs State Lows

Community

WunderPhotos

Upload Photos

1,928,447 photos uploaded!

WunderBlog® & News

Nearby

Air Quality

  Air Quality AQ Index Pollutant
Not available.

Snow Depth

Station Depth Elevation

Earthquake Activity

City Distance Mag. Time & Date
Minimum magnitude displayed is 2.5.

Coastal Water Temperatures

Place Temperature

Stations

Nearby Weather Stations

Station Location Temp. Windchill Dew Point Humidity Wind Precip. Elev Updated Type
                   

Watches & Warnings

There are currently no watches in effect.